Time;durP1;ratioP1;P1;durP2;ratioP2;P2;SDS_P1;SDS_P2;PMS_P1;PMS_P2;Temp;Humidity;BMP_temperature;BMP_pressure;BME280_temperature;BME280_humidity;BME280_pressure;Samples;Min_cycle;Max_cycle;Signal;HPM_P1;HPM_P2
2022/05/08 00:00:58;;;;;;;52.97;25.30;;;14.50;99.90;;;;;;5031470;28;20675;-82
2022/05/08 00:03:23;;;;;;;55.97;25.42;;;14.60;99.90;;;;;;5016146;28;20172;-80
2022/05/08 00:05:49;;;;;;;48.20;22.70;;;14.60;99.90;;;;;;5016475;28;20580;-81
2022/05/08 00:08:15;;;;;;;52.90;24.70;;;14.60;99.90;;;;;;5016014;28;20179;-81
2022/05/08 00:10:40;;;;;;;58.22;25.58;;;14.70;99.90;;;;;;5016054;28;20316;-80
2022/05/08 00:13:08;;;;;;;55.03;25.95;;;14.60;99.90;;;;;;5017946;28;20197;-82
2022/05/08 00:15:33;;;;;;;50.10;23.70;;;14.60;99.90;;;;;;5018081;28;20287;-82
2022/05/08 00:17:59;;;;;;;46.88;24.75;;;14.50;99.90;;;;;;5016332;28;20255;-81
2022/05/08 00:20:25;;;;;;;51.75;24.63;;;14.40;99.90;;;;;;5016212;28;20168;-80
2022/05/08 00:22:51;;;;;;;44.53;23.73;;;14.10;99.90;;;;;;5016241;28;20173;-81
2022/05/08 00:25:16;;;;;;;52.83;23.70;;;13.90;99.90;;;;;;5015923;28;20173;-81
2022/05/08 00:27:42;;;;;;;39.55;21.13;;;13.90;99.90;;;;;;5015752;28;20164;-81
2022/05/08 00:30:08;;;;;;;53.40;23.75;;;14.10;99.90;;;;;;5030420;28;20519;-81
2022/05/08 00:32:34;;;;;;;39.22;21.17;;;14.20;99.90;;;;;;5030804;28;20176;-83
2022/05/08 00:35:00;;;;;;;41.97;21.23;;;14.30;99.90;;;;;;5015995;28;20644;-82
2022/05/08 00:37:25;;;;;;;57.00;22.15;;;14.40;99.90;;;;;;5015381;28;20164;-84
2022/05/08 00:39:51;;;;;;;43.50;20.10;;;14.50;99.90;;;;;;5016241;28;20180;-85
2022/05/08 00:42:17;;;;;;;40.38;19.13;;;14.60;99.90;;;;;;5031705;28;20195;-86
2022/05/08 00:44:42;;;;;;;27.55;16.05;;;14.60;99.90;;;;;;5016226;28;20639;-82
2022/05/08 00:47:08;;;;;;;36.95;18.30;;;14.70;99.90;;;;;;5015742;28;20231;-83
2022/05/08 00:49:33;;;;;;;30.13;16.08;;;14.90;99.90;;;;;;5015632;28;20164;-83
2022/05/08 00:52:00;;;;;;;24.40;14.20;;;15.00;99.90;;;;;;5015723;28;20169;-85
2022/05/08 00:54:26;;;;;;;25.40;13.80;;;14.90;99.90;;;;;;5016034;28;20200;-86
2022/05/08 00:56:53;;;;;;;21.10;13.45;;;15.00;99.90;;;;;;5030970;28;20180;-80
2022/05/08 00:59:19;;;;;;;20.58;11.88;;;15.10;99.90;;;;;;5030715;28;20169;-87
2022/05/08 01:01:45;;;;;;;22.13;12.63;;;15.20;99.90;;;;;;5030902;28;20260;-86
2022/05/08 01:04:11;;;;;;;11.88;10.65;;;15.10;99.90;;;;;;5016060;28;20180;-80
2022/05/08 01:06:37;;;;;;;15.02;9.70;;;14.90;99.90;;;;;;5015896;28;20212;-87
2022/05/08 01:09:03;;;;;;;23.92;10.20;;;15.10;99.90;;;;;;5031070;28;20601;-83
2022/05/08 01:11:28;;;;;;;17.27;9.10;;;15.10;99.90;;;;;;5030884;28;20267;-83
2022/05/08 01:13:54;;;;;;;8.55;7.75;;;14.80;99.90;;;;;;5015591;28;20307;-82
2022/05/08 01:16:21;;;;;;;11.35;9.73;;;14.60;99.90;;;;;;5014914;28;20657;-81
2022/05/08 01:18:49;;;;;;;10.48;8.73;;;14.60;99.90;;;;;;5015265;28;20177;-82
2022/05/08 01:21:21;;;;;;;9.27;7.22;;;14.80;99.90;;;;;;5014618;28;20171;-83
2022/05/08 01:23:47;;;;;;;15.60;8.20;;;14.70;99.90;;;;;;5014204;28;20173;-82
2022/05/08 01:26:21;;;;;;;10.13;8.80;;;14.70;99.90;;;;;;5014658;28;20271;-80
2022/05/08 01:28:47;;;;;;;8.95;7.20;;;14.40;99.90;;;;;;5015192;28;20180;-85
2022/05/08 01:31:12;;;;;;;11.90;8.10;;;14.40;99.90;;;;;;5014441;28;20168;-80
2022/05/08 01:33:39;;;;;;;15.00;8.52;;;14.50;99.90;;;;;;5014641;28;20204;-80
2022/05/08 01:36:05;;;;;;;14.48;7.88;;;14.50;99.90;;;;;;5015306;28;20254;-83
2022/05/08 01:38:30;;;;;;;13.57;7.68;;;14.30;99.90;;;;;;5015340;28;20218;-79
2022/05/08 01:41:03;;;;;;;9.02;7.72;;;14.10;99.90;;;;;;5035257;28;20179;-81
2022/05/08 01:43:32;;;;;;;7.53;6.78;;;14.00;99.90;;;;;;5037538;28;20165;-82
2022/05/08 01:45:57;;;;;;;8.70;6.13;;;14.10;99.90;;;;;;5038655;28;20173;-79
2022/05/08 01:48:23;;;;;;;11.38;6.45;;;14.20;99.90;;;;;;5035031;28;20184;-81
2022/05/08 01:50:50;;;;;;;9.15;6.88;;;14.20;99.90;;;;;;5028125;28;20180;-81
2022/05/08 01:53:18;;;;;;;7.30;6.57;;;14.10;99.90;;;;;;5022237;28;20275;-82
2022/05/08 01:55:44;;;;;;;8.70;6.60;;;14.00;99.90;;;;;;5014689;28;20192;-82
2022/05/08 01:58:09;;;;;;;7.63;5.63;;;14.00;99.90;;;;;;5013460;28;20234;-83
2022/05/08 02:00:35;;;;;;;6.97;6.25;;;14.10;99.90;;;;;;5029504;28;20260;-85
2022/05/08 02:03:03;;;;;;;5.75;5.15;;;14.00;99.90;;;;;;5014225;28;20168;-83
2022/05/08 02:05:30;;;;;;;10.57;6.03;;;13.90;99.90;;;;;;5014367;28;20180;-82
2022/05/08 02:07:56;;;;;;;8.93;6.22;;;13.90;99.90;;;;;;5014236;28;20168;-83
2022/05/08 02:10:22;;;;;;;6.53;5.88;;;13.90;99.90;;;;;;5029539;28;20168;-81
2022/05/08 02:12:48;;;;;;;9.85;5.15;;;13.70;99.90;;;;;;5013923;28;20171;-86
2022/05/08 02:15:14;;;;;;;7.25;5.57;;;13.70;99.90;;;;;;5014138;28;20211;-83
2022/05/08 02:17:40;;;;;;;7.45;5.40;;;13.60;99.90;;;;;;5014106;28;20165;-87
2022/05/08 02:20:07;;;;;;;6.47;5.40;;;13.60;99.90;;;;;;5014304;28;20523;-81
2022/05/08 02:22:34;;;;;;;7.43;6.03;;;13.70;99.90;;;;;;5014376;28;20176;-80
2022/05/08 02:25:00;;;;;;;5.32;4.57;;;13.90;99.90;;;;;;5012883;28;20248;-83
2022/05/08 02:27:25;;;;;;;10.43;5.28;;;13.80;99.90;;;;;;5013893;28;20204;-85
2022/05/08 02:29:51;;;;;;;9.77;5.70;;;13.70;99.90;;;;;;5013963;28;20169;-85
2022/05/08 02:32:18;;;;;;;6.75;5.50;;;13.60;99.90;;;;;;5012292;28;20572;-83
2022/05/08 02:34:44;;;;;;;8.02;4.80;;;13.60;99.90;;;;;;5013356;28;20204;-80
2022/05/08 02:37:10;;;;;;;9.88;5.75;;;13.60;99.90;;;;;;5013597;28;20184;-80
2022/05/08 02:39:36;;;;;;;8.70;5.20;;;13.50;99.90;;;;;;5012119;28;20218;-81
2022/05/08 02:42:02;;;;;;;11.23;5.28;;;13.50;99.90;;;;;;5013585;28;20172;-79
2022/05/08 02:44:28;;;;;;;5.75;5.00;;;13.50;99.90;;;;;;5013581;28;20187;-83
2022/05/08 02:46:53;;;;;;;7.45;5.28;;;13.50;99.90;;;;;;5013263;28;20188;-82
2022/05/08 02:49:19;;;;;;;12.70;4.85;;;13.50;99.90;;;;;;5011968;28;20188;-83
2022/05/08 02:51:45;;;;;;;11.23;5.40;;;13.40;99.90;;;;;;5013468;28;20536;-80
2022/05/08 02:54:10;;;;;;;8.75;5.40;;;13.50;99.90;;;;;;5013154;28;20244;-85
2022/05/08 02:59:20;;;;;;;8.65;4.78;;;13.70;99.90;;;;;;5013004;28;20257;-80
2022/05/08 03:01:46;;;;;;;10.82;4.85;;;13.70;99.90;;;;;;5012676;28;20637;-82
2022/05/08 03:04:11;;;;;;;9.27;5.50;;;13.70;99.90;;;;;;5012979;28;20621;-81
2022/05/08 03:06:38;;;;;;;7.15;4.68;;;13.70;99.90;;;;;;5013079;28;20234;-82
2022/05/08 03:09:04;;;;;;;6.38;4.75;;;13.60;99.90;;;;;;5013403;28;20523;-80
2022/05/08 03:11:30;;;;;;;6.03;4.70;;;13.70;99.90;;;;;;5013099;28;20172;-81
2022/05/08 03:13:57;;;;;;;12.88;5.65;;;13.60;99.90;;;;;;5012793;28;20216;-82
2022/05/08 03:16:23;;;;;;;6.15;5.55;;;13.50;99.90;;;;;;5011548;28;20247;-81
2022/05/08 03:18:50;;;;;;;4.90;4.13;;;13.50;99.90;;;;;;5012768;28;20164;-81
2022/05/08 03:21:16;;;;;;;8.40;4.45;;;13.60;99.90;;;;;;5012760;28;20179;-79
2022/05/08 03:23:43;;;;;;;8.23;4.45;;;13.60;99.90;;;;;;5012833;28;20223;-80
2022/05/08 03:26:09;;;;;;;7.40;5.13;;;13.70;99.90;;;;;;5011645;28;20192;-80
2022/05/08 03:28:38;;;;;;;5.57;4.90;;;14.00;99.90;;;;;;5013084;28;20177;-80
2022/05/08 03:31:04;;;;;;;10.02;4.97;;;14.00;99.90;;;;;;5011510;28;20164;-80
2022/05/08 03:33:34;;;;;;;7.68;4.80;;;14.10;99.90;;;;;;5012904;28;20208;-84
2022/05/08 03:36:01;;;;;;;6.97;4.40;;;13.90;99.90;;;;;;5012689;28;20188;-84
2022/05/08 03:38:27;;;;;;;9.18;4.75;;;13.80;99.90;;;;;;5012671;28;20169;-81
2022/05/08 03:40:53;;;;;;;9.95;5.00;;;14.00;99.90;;;;;;5011493;28;20183;-80
2022/05/08 03:43:20;;;;;;;7.20;5.22;;;14.10;99.90;;;;;;5012278;28;20557;-80
2022/05/08 03:45:49;;;;;;;5.50;4.93;;;14.20;99.90;;;;;;5011200;28;20222;-80
2022/05/08 03:48:15;;;;;;;6.93;4.63;;;14.10;99.90;;;;;;5012583;28;20180;-80
2022/05/08 03:50:41;;;;;;;5.57;4.32;;;14.00;99.90;;;;;;5012620;28;20169;-81
2022/05/08 03:53:07;;;;;;;8.80;5.20;;;14.00;99.90;;;;;;5012434;28;20204;-81
2022/05/08 03:55:32;;;;;;;5.18;4.68;;;14.10;99.90;;;;;;5012200;28;20326;-80
2022/05/08 03:57:58;;;;;;;8.45;4.85;;;14.00;99.90;;;;;;5012294;28;20528;-81
2022/05/08 04:00:24;;;;;;;7.40;5.47;;;13.90;99.90;;;;;;5012899;28;20168;-83
2022/05/08 04:02:49;;;;;;;12.60;5.28;;;13.80;99.90;;;;;;5012721;28;20172;-80
2022/05/08 04:05:15;;;;;;;6.13;4.68;;;13.90;99.90;;;;;;5013038;28;20615;-79
2022/05/08 04:07:41;;;;;;;5.40;4.90;;;13.80;99.90;;;;;;5016256;28;20165;-82
2022/05/08 04:10:08;;;;;;;13.48;5.85;;;13.70;99.90;;;;;;5016295;28;20248;-82
2022/05/08 04:12:35;;;;;;;7.03;5.38;;;13.80;99.90;;;;;;5014563;28;20637;-82
2022/05/08 04:15:01;;;;;;;8.18;5.88;;;13.90;99.90;;;;;;5016038;28;20544;-81
2022/05/08 04:17:28;;;;;;;7.97;5.15;;;14.00;99.90;;;;;;5015880;28;20192;-82
2022/05/08 04:19:55;;;;;;;10.05;5.47;;;13.90;99.90;;;;;;5014681;28;20180;-82
2022/05/08 04:25:07;;;;;;;6.18;5.65;;;13.70;99.90;;;;;;5015781;28;20590;-83
2022/05/08 04:27:35;;;;;;;12.82;5.97;;;13.60;99.90;;;;;;5014817;28;20204;-81
2022/05/08 04:30:01;;;;;;;13.25;5.80;;;13.50;99.90;;;;;;5016298;28;20248;-79
2022/05/08 04:32:27;;;;;;;7.38;6.25;;;13.30;99.90;;;;;;5016484;28;20270;-81
2022/05/08 04:34:52;;;;;;;8.48;6.32;;;13.40;99.90;;;;;;5016605;28;20227;-79
2022/05/08 04:37:18;;;;;;;12.57;6.88;;;13.40;99.90;;;;;;5016537;28;20548;-81
2022/05/08 04:39:44;;;;;;;7.85;6.00;;;13.50;99.90;;;;;;5016458;28;20259;-85
2022/05/08 04:42:09;;;;;;;14.45;6.40;;;13.50;99.90;;;;;;5014609;28;20160;-80
2022/05/08 04:44:35;;;;;;;11.82;6.57;;;13.60;99.90;;;;;;5015856;28;20522;-84
2022/05/08 04:47:01;;;;;;;12.73;6.60;;;13.60;99.90;;;;;;5015638;28;20184;-81
2022/05/08 04:49:27;;;;;;;12.85;6.35;;;13.60;99.90;;;;;;5014255;28;20168;-82
2022/05/08 04:51:53;;;;;;;9.25;6.07;;;13.60;99.90;;;;;;5015238;28;20251;-80
2022/05/08 04:54:19;;;;;;;15.80;6.53;;;13.60;99.90;;;;;;5015013;28;20282;-80
2022/05/08 04:56:44;;;;;;;9.93;6.75;;;13.60;99.90;;;;;;5015386;28;20284;-80
2022/05/08 04:59:10;;;;;;;11.65;6.78;;;13.50;99.90;;;;;;5014104;28;20177;-80
2022/05/08 05:01:36;;;;;;;13.50;7.30;;;13.40;99.90;;;;;;5015414;28;20629;-85
2022/05/08 05:04:01;;;;;;;16.35;7.80;;;13.40;99.90;;;;;;5015173;28;20172;-81
2022/05/08 05:06:27;;;;;;;11.00;7.13;;;13.50;99.90;;;;;;5015206;28;20184;-80
2022/05/08 05:08:52;;;;;;;14.60;6.47;;;13.40;99.90;;;;;;5013675;28;20307;-84
2022/05/08 05:11:19;;;;;;;8.80;6.60;;;13.40;99.90;;;;;;5013092;28;20184;-81
2022/05/08 05:13:44;;;;;;;10.80;7.10;;;13.50;99.90;;;;;;5014321;28;20208;-82
2022/05/08 05:16:10;;;;;;;13.93;6.97;;;13.30;99.90;;;;;;5014548;28;20594;-84
2022/05/08 05:18:36;;;;;;;11.85;6.63;;;13.30;99.90;;;;;;5014766;28;20161;-82
2022/05/08 05:21:01;;;;;;;9.02;6.45;;;13.40;99.90;;;;;;5014667;28;20207;-81
2022/05/08 05:23:27;;;;;;;10.13;6.75;;;13.40;99.90;;;;;;5013483;28;20598;-81
2022/05/08 05:25:52;;;;;;;14.35;7.32;;;13.50;99.90;;;;;;5014649;28;20200;-80
2022/05/08 05:28:18;;;;;;;18.30;7.43;;;13.50;99.90;;;;;;5014544;28;20537;-80
2022/05/08 05:30:44;;;;;;;9.93;6.50;;;13.60;99.90;;;;;;5013024;28;20306;-80
2022/05/08 05:33:15;;;;;;;7.55;6.85;;;13.70;99.90;;;;;;5014561;28;20235;-80
2022/05/08 05:35:42;;;;;;;13.43;6.78;;;13.80;99.90;;;;;;5013103;28;20192;-80
2022/05/08 05:38:08;;;;;;;7.70;6.32;;;13.60;99.90;;;;;;5014910;28;20188;-85
2022/05/08 05:40:34;;;;;;;10.32;6.38;;;13.40;99.90;;;;;;5015077;28;20576;-81
2022/05/08 05:43:00;;;;;;;12.60;5.75;;;13.50;99.90;;;;;;5014672;28;20156;-83
2022/05/08 05:45:26;;;;;;;11.07;7.53;;;13.40;99.90;;;;;;5029954;28;20193;-79
2022/05/08 05:47:53;;;;;;;11.43;7.18;;;13.40;99.90;;;;;;5014610;28;20173;-80
2022/05/08 05:50:25;;;;;;;17.83;7.80;;;13.40;99.90;;;;;;5031895;28;20160;-84
2022/05/08 05:52:52;;;;;;;7.82;6.95;;;13.60;99.90;;;;;;5034370;28;20164;-77
2022/05/08 05:55:18;;;;;;;15.63;7.50;;;13.50;99.90;;;;;;5035122;28;20199;-77
2022/05/08 05:57:44;;;;;;;15.50;6.97;;;13.50;99.90;;;;;;5027361;28;20196;-79
2022/05/08 06:00:14;;;;;;;11.57;6.57;;;13.70;99.90;;;;;;5017377;28;20200;-79
2022/05/08 06:02:43;;;;;;;8.45;6.07;;;13.80;99.90;;;;;;5018289;28;20189;-79
2022/05/08 06:05:13;;;;;;;8.45;6.18;;;13.90;99.90;;;;;;5014424;28;20165;-83
2022/05/08 06:07:39;;;;;;;7.53;6.40;;;14.00;99.90;;;;;;5014060;28;20192;-78
2022/05/08 06:10:07;;;;;;;12.02;6.70;;;14.20;99.90;;;;;;5014227;28;20164;-79
2022/05/08 06:12:33;;;;;;;8.13;6.13;;;14.10;99.90;;;;;;5014124;28;20536;-78
2022/05/08 06:14:59;;;;;;;10.82;6.80;;;13.80;99.90;;;;;;5013801;28;20290;-81
2022/05/08 06:17:25;;;;;;;13.88;6.55;;;13.90;99.90;;;;;;5012623;28;20222;-78
2022/05/08 06:19:51;;;;;;;7.63;6.78;;;14.10;99.90;;;;;;5013422;28;20169;-79
2022/05/08 06:22:16;;;;;;;10.38;6.70;;;14.10;99.90;;;;;;5012454;28;20177;-79
2022/05/08 06:24:42;;;;;;;9.95;6.70;;;14.10;99.90;;;;;;5012140;28;20645;-79
2022/05/08 06:27:08;;;;;;;8.18;7.25;;;14.00;99.90;;;;;;5013764;28;20240;-79
2022/05/08 06:29:34;;;;;;;11.52;6.50;;;14.00;99.90;;;;;;5012708;28;20196;-79
2022/05/08 06:32:00;;;;;;;13.13;6.60;;;14.00;99.90;;;;;;5013216;28;20199;-78
2022/05/08 06:34:27;;;;;;;9.95;5.88;;;14.20;99.90;;;;;;5013360;28;20205;-79
2022/05/08 06:36:53;;;;;;;10.07;5.70;;;14.40;99.90;;;;;;5013171;28;20579;-78
2022/05/08 06:39:19;;;;;;;7.75;6.60;;;14.30;99.90;;;;;;5013138;28;20279;-78
2022/05/08 06:41:45;;;;;;;10.20;5.90;;;14.50;99.90;;;;;;5013077;28;20168;-79
2022/05/08 06:44:13;;;;;;;11.27;5.90;;;14.70;99.90;;;;;;5013412;28;20168;-82
2022/05/08 06:46:39;;;;;;;6.95;6.15;;;15.00;99.90;;;;;;5013385;28;20286;-82
2022/05/08 06:49:05;;;;;;;6.47;5.68;;;15.20;99.90;;;;;;5013184;28;20168;-80
2022/05/08 06:51:32;;;;;;;9.77;5.20;;;15.10;99.90;;;;;;5013314;28;20164;-83
2022/05/08 06:53:57;;;;;;;9.82;6.30;;;15.30;99.90;;;;;;5013341;28;20211;-80
2022/05/08 06:56:25;;;;;;;9.50;6.47;;;15.40;99.90;;;;;;5013118;28;20196;-84
2022/05/08 07:01:35;;;;;;;6.80;6.00;;;15.20;99.90;;;;;;5013464;28;20323;-83
2022/05/08 07:04:06;;;;;;;8.88;6.70;;;15.30;99.90;;;;;;5011837;28;20664;-78
2022/05/08 07:06:32;;;;;;;16.67;6.25;;;15.30;99.90;;;;;;5012710;28;20208;-79
2022/05/08 07:08:58;;;;;;;9.15;6.50;;;15.60;99.90;;;;;;5013271;28;20663;-77
2022/05/08 07:11:25;;;;;;;13.07;5.68;;;16.30;99.90;;;;;;5013478;28;20247;-80
2022/05/08 07:13:50;;;;;;;6.78;5.93;;;16.60;99.90;;;;;;5012880;28;20192;-84
2022/05/08 07:16:16;;;;;;;11.25;5.70;;;16.70;99.90;;;;;;5011655;28;20184;-78
2022/05/08 07:18:42;;;;;;;8.13;5.75;;;17.00;99.90;;;;;;5013156;28;20173;-76
2022/05/08 07:21:07;;;;;;;7.65;5.47;;;17.40;99.90;;;;;;5013550;28;20204;-78
2022/05/08 07:23:33;;;;;;;7.00;5.45;;;17.20;99.90;;;;;;5012282;28;20176;-79
2022/05/08 07:25:59;;;;;;;7.65;5.68;;;16.90;99.90;;;;;;5013130;28;20189;-84
2022/05/08 07:28:25;;;;;;;8.30;6.00;;;17.00;99.90;;;;;;5012941;28;20176;-80
2022/05/08 07:30:51;;;;;;;12.25;5.57;;;17.00;99.90;;;;;;5012305;28;20604;-80
2022/05/08 07:33:17;;;;;;;10.73;5.68;;;16.90;99.90;;;;;;5012686;28;20554;-81
2022/05/08 07:38:28;;;;;;;12.20;6.30;;;17.30;99.90;;;;;;5013233;28;20231;-81
2022/05/08 07:40:54;;;;;;;8.95;5.78;;;16.70;99.90;;;;;;5013788;28;20691;-89
2022/05/08 07:43:20;;;;;;;12.20;6.28;;;16.30;99.90;;;;;;5032159;28;20164;-81
2022/05/08 07:45:46;;;;;;;13.00;6.40;;;16.20;99.90;;;;;;5031376;28;20189;-78
2022/05/08 07:48:12;;;;;;;11.63;6.20;;;16.20;99.90;;;;;;5016916;28;20180;-83
2022/05/08 07:50:38;;;;;;;8.65;5.53;;;16.30;99.90;;;;;;5017049;28;20169;-82
2022/05/08 07:53:04;;;;;;;13.13;6.50;;;16.50;99.90;;;;;;5014610;28;20168;-80
2022/05/08 07:55:29;;;;;;;12.95;5.82;;;16.40;99.90;;;;;;5013641;28;20192;-80
2022/05/08 07:57:55;;;;;;;14.40;7.03;;;16.50;99.90;;;;;;5016552;28;20171;-80
2022/05/08 08:00:21;;;;;;;11.60;5.90;;;16.60;99.90;;;;;;5016472;28;20178;-85
2022/05/08 08:02:46;;;;;;;18.48;7.03;;;16.60;99.90;;;;;;5016016;28;20168;-80
2022/05/08 08:05:12;;;;;;;17.92;6.65;;;16.50;99.90;;;;;;5028626;28;20233;-85
2022/05/08 08:07:39;;;;;;;12.65;6.18;;;16.30;99.90;;;;;;5017483;28;20292;-78
2022/05/08 08:10:06;;;;;;;16.10;6.65;;;16.20;99.90;;;;;;5014326;28;20195;-85
2022/05/08 08:12:32;;;;;;;12.68;6.15;;;16.20;99.90;;;;;;5016876;28;20226;-80
2022/05/08 08:14:59;;;;;;;12.90;6.20;;;16.20;99.90;;;;;;5013850;28;20715;-80
2022/05/08 08:17:26;;;;;;;13.32;6.57;;;16.20;99.90;;;;;;5013708;28;20253;-84
2022/05/08 08:19:53;;;;;;;18.50;5.43;;;16.20;99.90;;;;;;5014372;28;20183;-79
2022/05/08 08:22:19;;;;;;;13.82;6.15;;;16.20;99.90;;;;;;5015947;28;20164;-87
2022/05/08 08:24:44;;;;;;;12.50;5.72;;;16.40;99.90;;;;;;5013545;28;20891;-83
2022/05/08 08:27:10;;;;;;;10.77;5.80;;;16.20;99.90;;;;;;5011027;28;20201;-81
2022/05/08 08:29:36;;;;;;;18.70;6.72;;;16.00;99.90;;;;;;4996051;28;20165;-80
2022/05/08 08:32:01;;;;;;;15.07;6.53;;;15.80;99.90;;;;;;4996442;28;20192;-78
2022/05/08 08:34:27;;;;;;;14.20;5.72;;;15.70;99.90;;;;;;4995590;28;20219;-78
2022/05/08 08:36:53;;;;;;;16.25;5.70;;;16.10;99.90;;;;;;4995857;28;20181;-80
2022/05/08 08:39:19;;;;;;;13.02;5.65;;;16.30;99.90;;;;;;4995650;28;20184;-79
2022/05/08 08:41:53;;;;;;;9.25;5.72;;;16.50;99.90;;;;;;4995520;28;20172;-80
2022/05/08 08:50:01;;;;;;;12.35;4.97;;;16.70;99.90;;;;;;5014791;28;20207;-87
2022/05/08 08:52:27;;;;;;;13.13;5.57;;;16.90;99.90;;;;;;5014246;28;20543;-84
2022/05/08 08:54:53;;;;;;;6.25;3.88;;;17.10;99.90;;;;;;5030031;28;20293;-85
2022/05/08 08:57:19;;;;;;;14.30;4.90;;;16.90;99.90;;;;;;5017156;28;20592;-86
2022/05/08 08:59:44;;;;;;;9.27;3.75;;;16.80;99.90;;;;;;5029053;28;20311;-81
2022/05/08 09:02:18;;;;;;;15.95;4.38;;;16.80;99.90;;;;;;5019066;28;20217;-80
2022/05/08 09:04:45;;;;;;;11.05;4.55;;;16.80;99.90;;;;;;5017568;28;20169;-80
2022/05/08 09:07:49;;;;;;;5.03;3.58;;;17.00;99.90;;;;;;5017182;28;20242;-86
2022/05/08 09:10:21;;;;;;;11.80;3.88;;;17.10;99.90;;;;;;5015642;28;20664;-83
2022/05/08 09:12:53;;;;;;;9.65;4.15;;;17.30;99.90;;;;;;5017057;28;20338;-84
2022/05/08 09:15:30;;;;;;;8.05;2.95;;;17.20;99.90;;;;;;5039107;28;20773;-81
2022/05/08 09:17:57;;;;;;;3.45;2.70;;;17.50;99.90;;;;;;5031358;28;20164;-83
2022/05/08 09:20:39;;;;;;;10.60;2.92;;;17.40;99.90;;;;;;5042857;28;20215;-82
2022/05/08 09:23:11;;;;;;;11.48;2.95;;;17.30;99.90;;;;;;5015475;28;20173;-82
2022/05/08 09:25:51;;;;;;;6.38;2.08;;;17.40;99.90;;;;;;5013335;28;20656;-80
2022/05/08 09:28:26;;;;;;;5.35;2.22;;;17.60;99.90;;;;;;5046621;28;20207;-79
2022/05/08 09:31:06;;;;;;;10.25;2.65;;;17.50;99.90;;;;;;5024649;28;20233;-80
2022/05/08 09:33:36;;;;;;;4.18;2.40;;;17.50;99.90;;;;;;5017997;28;20664;-84
2022/05/08 09:36:07;;;;;;;6.55;2.50;;;17.50;99.90;;;;;;5029845;28;20226;-83
2022/05/08 09:38:41;;;;;;;17.85;2.47;;;17.50;99.90;;;;;;5013637;28;20345;-84
2022/05/08 09:41:07;;;;;;;6.55;2.33;;;17.60;99.90;;;;;;5045118;28;20207;-83
2022/05/08 09:43:34;;;;;;;9.95;2.75;;;17.80;99.90;;;;;;5011626;28;20188;-85
2022/05/08 09:46:01;;;;;;;9.82;2.40;;;17.90;99.90;;;;;;5013224;28;20201;-82
2022/05/08 09:48:28;;;;;;;10.40;1.95;;;18.10;99.90;;;;;;5013040;28;20183;-87
2022/05/08 09:50:59;;;;;;;6.03;2.22;;;18.30;99.90;;;;;;5013914;28;20169;-85
2022/05/08 09:53:26;;;;;;;8.07;2.35;;;18.40;99.90;;;;;;5026625;28;20564;-83
2022/05/08 09:55:57;;;;;;;22.25;3.28;;;18.50;99.90;;;;;;5050130;28;20215;-84
2022/05/08 09:58:23;;;;;;;8.70;2.55;;;18.40;99.90;;;;;;5049085;28;20175;-81
2022/05/08 10:00:51;;;;;;;7.43;2.63;;;18.20;99.90;;;;;;5049804;28;20164;-78
2022/05/08 10:03:18;;;;;;;7.65;2.28;;;18.10;99.90;;;;;;5055420;28;20180;-79
2022/05/08 10:05:44;;;;;;;10.90;2.70;;;18.20;99.90;;;;;;5054966;28;20283;-77
2022/05/08 10:08:13;;;;;;;8.55;3.55;;;18.20;99.90;;;;;;5051613;28;20243;-79
2022/05/08 10:14:14;;;;;;;13.48;3.38;;;18.20;99.90;;;;;;5039617;28;20203;-80
2022/05/08 10:16:57;;;;;;;10.90;2.60;;;18.30;99.90;;;;;;5033847;28;20204;-78
2022/05/08 10:19:25;;;;;;;7.60;2.85;;;18.30;99.90;;;;;;5033810;28;20171;-84
2022/05/08 10:21:57;;;;;;;12.38;3.53;;;18.30;99.90;;;;;;5033564;28;20194;-79
2022/05/08 10:24:40;;;;;;;6.72;2.15;;;18.30;99.90;;;;;;5033656;28;20168;-80
2022/05/08 10:27:17;;;;;;;4.97;2.58;;;18.30;99.90;;;;;;5033881;28;20188;-80
2022/05/08 10:29:52;;;;;;;7.88;3.00;;;18.40;99.90;;;;;;5033830;28;20620;-81
2022/05/08 10:32:33;;;;;;;11.90;3.60;;;18.60;99.90;;;;;;5034232;28;20251;-81
2022/05/08 10:35:19;;;;;;;17.95;3.00;;;18.70;99.90;;;;;;5033118;28;20207;-81
2022/05/08 10:37:49;;;;;;;6.72;2.38;;;18.60;99.90;;;;;;5049015;28;20258;-83
2022/05/08 10:40:24;;;;;;;7.10;2.45;;;18.60;99.90;;;;;;5053106;28;20172;-86
2022/05/08 10:42:58;;;;;;;6.32;1.90;;;18.60;99.90;;;;;;5037996;28;20195;-82
2022/05/08 10:45:33;;;;;;;6.13;2.13;;;18.50;99.90;;;;;;5035333;28;20240;-79
2022/05/08 10:48:14;;;;;;;12.27;2.22;;;18.60;99.90;;;;;;5032803;28;20155;-78
2022/05/08 10:50:54;;;;;;;5.68;2.22;;;18.60;99.90;;;;;;5032115;28;20172;-77
2022/05/08 10:53:27;;;;;;;11.13;2.25;;;18.70;99.90;;;;;;5048385;28;20199;-78
2022/05/08 10:56:00;;;;;;;7.20;2.10;;;18.80;99.90;;;;;;5033346;28;20199;-78
2022/05/08 10:58:26;;;;;;;6.22;2.17;;;18.90;99.90;;;;;;5033915;28;20164;-78
2022/05/08 11:01:00;;;;;;;8.07;2.80;;;18.90;99.90;;;;;;5034059;28;20182;-79
2022/05/08 11:03:28;;;;;;;3.33;2.22;;;19.10;99.90;;;;;;5034020;28;20563;-79
2022/05/08 11:05:54;;;;;;;8.40;1.90;;;19.00;99.90;;;;;;5032534;28;20246;-80
2022/05/08 11:08:38;;;;;;;7.45;1.88;;;19.10;99.90;;;;;;5032969;28;20160;-80
2022/05/08 11:11:09;;;;;;;5.70;2.42;;;19.00;99.90;;;;;;5032853;28;20218;-80
2022/05/08 11:13:49;;;;;;;11.85;2.53;;;18.90;99.90;;;;;;5030870;28;20213;-79
2022/05/08 11:16:33;;;;;;;5.80;1.80;;;18.90;99.90;;;;;;5032121;28;20198;-80
2022/05/08 11:19:00;;;;;;;7.50;1.50;;;18.80;99.90;;;;;;5047302;28;20602;-80
2022/05/08 11:21:26;;;;;;;9.68;1.92;;;18.80;99.90;;;;;;5048368;28;20182;-80
2022/05/08 11:23:54;;;;;;;6.75;2.15;;;18.90;99.90;;;;;;5033245;28;20168;-80
2022/05/08 11:26:28;;;;;;;5.38;1.48;;;18.90;99.90;;;;;;5033091;28;20522;-82
2022/05/08 11:28:55;;;;;;;8.32;1.85;;;18.90;99.90;;;;;;5032673;28;20167;-80
2022/05/08 11:31:23;;;;;;;14.05;2.83;;;18.90;99.90;;;;;;5032780;28;20168;-85
2022/05/08 11:36:36;;;;;;;15.45;3.05;;;19.30;99.90;;;;;;5032789;28;20257;-80
2022/05/08 11:39:05;;;;;;;7.70;2.28;;;19.30;99.90;;;;;;5032448;28;20287;-79
2022/05/08 11:41:36;;;;;;;8.80;2.38;;;19.30;99.90;;;;;;5032773;28;20172;-79
2022/05/08 11:44:28;;;;;;;5.68;2.08;;;19.40;99.90;;;;;;5032344;28;20167;-82
2022/05/08 11:46:56;;;;;;;6.68;1.77;;;19.40;99.90;;;;;;5028478;28;20195;-80
2022/05/08 11:49:26;;;;;;;8.35;2.13;;;19.60;99.90;;;;;;5032240;28;20536;-80
2022/05/08 11:52:02;;;;;;;7.78;1.50;;;19.50;99.90;;;;;;5032338;28;20164;-79
2022/05/08 11:54:32;;;;;;;16.58;1.98;;;19.60;99.90;;;;;;5034046;28;20714;-79
2022/05/08 11:57:19;;;;;;;2.72;1.40;;;19.50;99.90;;;;;;5047782;28;20188;-80
2022/05/08 11:59:50;;;;;;;11.57;1.65;;;19.60;99.90;;;;;;5032505;28;20178;-79
2022/05/08 12:02:17;;;;;;;6.40;1.20;;;19.60;99.90;;;;;;5032139;28;20203;-79
2022/05/08 12:04:57;;;;;;;16.08;1.58;;;19.60;98.90;;;;;;5032005;28;20177;-79
2022/05/08 12:07:22;;;;;;;7.50;1.80;;;19.60;99.20;;;;;;5032142;28;20195;-79
2022/05/08 12:09:48;;;;;;;4.57;1.42;;;19.50;99.10;;;;;;5032093;28;20196;-82
2022/05/08 12:12:37;;;;;;;10.68;1.45;;;19.50;99.80;;;;;;5031888;28;20210;-78
2022/05/08 12:15:09;;;;;;;6.95;1.48;;;19.40;99.50;;;;;;5031810;28;20218;-81
2022/05/08 12:17:43;;;;;;;4.13;1.15;;;19.50;99.80;;;;;;5030714;28;20180;-79
2022/05/08 12:20:26;;;;;;;3.70;1.42;;;19.50;99.20;;;;;;5030797;28;20223;-80
2022/05/08 12:23:06;;;;;;;7.47;1.58;;;19.60;98.40;;;;;;5031981;28;20184;-79
2022/05/08 12:25:34;;;;;;;2.63;1.20;;;19.70;98.40;;;;;;5031558;28;20264;-79
2022/05/08 12:28:00;;;;;;;8.93;1.23;;;19.70;98.60;;;;;;5034974;28;20160;-79
2022/05/08 12:30:26;;;;;;;4.05;0.90;;;19.80;98.90;;;;;;5035484;28;20267;-80
2022/05/08 12:32:51;;;;;;;3.20;1.10;;;20.00;98.60;;;;;;5035570;28;20192;-79
2022/05/08 12:35:19;;;;;;;9.38;1.83;;;20.20;99.00;;;;;;5034939;28;20238;-79
2022/05/08 12:37:47;;;;;;;3.85;1.38;;;20.40;98.70;;;;;;5035046;28;20167;-78
2022/05/08 12:40:14;;;;;;;8.05;1.33;;;20.50;98.60;;;;;;5034795;28;20536;-79
2022/05/08 12:42:40;;;;;;;5.70;1.58;;;20.50;98.70;;;;;;5035575;28;20505;-79
2022/05/08 12:45:07;;;;;;;3.13;1.38;;;20.60;98.70;;;;;;5035168;28;20164;-80
2022/05/08 12:47:33;;;;;;;8.13;1.40;;;20.50;98.20;;;;;;5035251;28;20258;-81
2022/05/08 12:49:58;;;;;;;6.57;1.13;;;20.30;98.60;;;;;;5035419;28;20168;-80
2022/05/08 12:52:24;;;;;;;4.50;1.63;;;20.30;98.90;;;;;;5035646;28;20175;-80
2022/05/08 12:54:50;;;;;;;4.13;1.40;;;20.10;98.90;;;;;;5035067;28;20608;-80
2022/05/08 12:59:42;;;;;;;11.00;1.50;;;20.20;98.70;;;;;;5035037;28;20191;-81
2022/05/08 13:00:02;;;;;;;4.10;1.30;;;20.30;99.10;;;;;;5034776;28;20214;-80
2022/05/08 13:02:28;;;;;;;2.53;1.00;;;20.20;99.00;;;;;;5050039;28;20555;-79
2022/05/08 13:04:54;;;;;;;3.22;2.75;;;20.30;97.70;;;;;;5035318;28;20183;-81
2022/05/08 13:07:20;;;;;;;7.28;1.60;;;20.30;98.40;;;;;;5034877;28;20191;-80